createdAt,value
2022-09-17T00:00:59.005Z,15.33
2022-09-17T00:03:28.488Z,15.40
2022-09-17T00:06:02.118Z,15.36
2022-09-17T00:08:29.423Z,15.31
2022-09-17T00:10:56.044Z,15.36
2022-09-17T00:13:22.848Z,15.39
2022-09-17T00:15:51.094Z,15.37
2022-09-17T00:18:17.746Z,15.34
2022-09-17T00:20:46.401Z,15.51
2022-09-17T00:23:14.571Z,15.46
2022-09-17T00:25:42.994Z,15.38
2022-09-17T00:28:09.764Z,15.38
2022-09-17T00:30:43.285Z,15.43
2022-09-17T00:33:12.703Z,15.40
2022-09-17T00:35:39.063Z,15.34
2022-09-17T00:38:05.815Z,15.40
2022-09-17T00:40:32.227Z,15.25
2022-09-17T00:42:58.758Z,15.28
2022-09-17T00:45:26.251Z,15.31
2022-09-17T00:47:59.798Z,15.18
2022-09-17T00:50:40.639Z,15.14
2022-09-17T00:53:12.072Z,15.06
2022-09-17T00:55:47.241Z,14.64
2022-09-17T00:58:16.868Z,14.48
2022-09-17T01:00:47.228Z,14.30
2022-09-17T01:03:13.985Z,13.92
2022-09-17T01:05:49.689Z,13.58
2022-09-17T01:08:29.150Z,13.44
2022-09-17T01:11:33.096Z,13.22
2022-09-17T01:14:18.362Z,12.66
2022-09-17T01:17:11.996Z,12.85
2022-09-17T01:20:19.814Z,12.90
2022-09-17T01:23:17.656Z,13.25
2022-09-17T01:26:04.012Z,12.97
2022-09-17T01:28:41.077Z,12.92
2022-09-17T01:31:21.731Z,13.14
2022-09-17T01:34:04.641Z,13.15
2022-09-17T01:37:05.167Z,13.19
2022-09-17T01:39:44.046Z,13.07
2022-09-17T01:42:36.135Z,12.73
2022-09-17T01:45:43.783Z,13.22
2022-09-17T01:48:35.300Z,13.34
2022-09-17T01:51:16.349Z,13.50
2022-09-17T01:53:52.487Z,13.80
2022-09-17T01:56:26.418Z,14.00
2022-09-17T01:59:16.882Z,14.13
2022-09-17T02:01:49.495Z,14.24
2022-09-17T02:04:26.128Z,14.25
2022-09-17T02:07:00.100Z,14.33
2022-09-17T02:09:57.800Z,14.40
2022-09-17T02:12:31.219Z,14.48
2022-09-17T02:15:01.340Z,14.27
2022-09-17T02:17:36.961Z,13.59
2022-09-17T02:20:04.005Z,13.28
2022-09-17T02:22:43.629Z,13.51
2022-09-17T02:25:31.215Z,12.91
2022-09-17T02:28:20.874Z,13.04
2022-09-17T02:30:47.342Z,12.50
2022-09-17T02:33:15.752Z,11.93
2022-09-17T02:35:44.104Z,12.32
2022-09-17T02:38:10.759Z,12.57
2022-09-17T02:40:46.276Z,12.83
2022-09-17T02:43:43.524Z,12.86
2022-09-17T02:46:43.024Z,12.43
2022-09-17T02:49:28.807Z,12.11
2022-09-17T02:52:55.294Z,11.90
2022-09-17T02:56:01.101Z,11.90
2022-09-17T02:58:41.307Z,11.22
2022-09-17T03:01:44.590Z,11.28
2022-09-17T03:04:33.008Z,11.09
2022-09-17T03:07:29.213Z,11.29
2022-09-17T03:10:04.157Z,11.08
2022-09-17T03:12:48.758Z,11.06
2022-09-17T03:15:28.216Z,11.38
2022-09-17T03:18:13.599Z,11.47
2022-09-17T03:21:11.965Z,11.90
2022-09-17T03:24:28.273Z,12.10
2022-09-17T03:27:01.877Z,12.06
2022-09-17T03:29:28.251Z,11.97
2022-09-17T03:32:13.603Z,11.63
2022-09-17T03:34:46.965Z,11.22
2022-09-17T03:37:13.697Z,11.23
2022-09-17T03:40:04.115Z,11.34
2022-09-17T03:45:20.731Z,10.83
2022-09-17T03:48:04.657Z,10.83
2022-09-17T03:50:46.972Z,10.77
2022-09-17T03:53:40.368Z,10.81
2022-09-17T03:56:27.572Z,10.85
2022-09-17T03:59:23.097Z,10.75
2022-09-17T04:02:44.523Z,10.69
2022-09-17T04:05:25.357Z,10.69
2022-09-17T04:08:03.622Z,10.91
2022-09-17T04:10:46.724Z,11.24
2022-09-17T04:13:26.910Z,11.31
2022-09-17T04:16:05.681Z,11.25
2022-09-17T04:18:32.612Z,11.22
2022-09-17T04:21:09.531Z,11.50
2022-09-17T04:23:36.043Z,11.37
2022-09-17T04:26:02.351Z,11.53
2022-09-17T04:28:28.672Z,11.57
2022-09-17T04:30:55.256Z,11.48
2022-09-17T04:33:21.884Z,11.37
2022-09-17T04:35:48.481Z,11.19
2022-09-17T04:38:18.591Z,11.17
2022-09-17T04:40:46.361Z,11.06
2022-09-17T04:43:13.064Z,11.32
2022-09-17T04:45:39.380Z,11.51
2022-09-17T04:48:05.804Z,11.66
2022-09-17T04:50:32.142Z,11.87
2022-09-17T04:52:58.823Z,11.46
2022-09-17T04:55:27.360Z,11.73
2022-09-17T04:57:54.067Z,11.33
2022-09-17T05:00:22.434Z,11.11
2022-09-17T05:02:51.550Z,11.19
2022-09-17T05:05:18.771Z,11.32
2022-09-17T05:07:45.420Z,11.21
2022-09-17T05:10:13.167Z,10.93
2022-09-17T05:12:39.738Z,10.87
2022-09-17T05:15:06.841Z,10.72
2022-09-17T05:17:33.168Z,10.73
2022-09-17T05:19:59.493Z,10.68
2022-09-17T05:22:25.934Z,10.84
2022-09-17T05:24:52.253Z,11.00
2022-09-17T05:27:18.692Z,10.91
2022-09-17T05:29:45.250Z,10.54
2022-09-17T05:32:11.621Z,10.39
2022-09-17T05:34:37.967Z,10.45
2022-09-17T05:37:04.363Z,10.40
2022-09-17T05:39:30.652Z,10.47
2022-09-17T05:41:57.072Z,10.48
2022-09-17T05:44:23.620Z,10.57
2022-09-17T05:46:53.346Z,10.66
2022-09-17T05:49:19.896Z,10.34
2022-09-17T05:51:46.265Z,10.64
2022-09-17T05:54:12.594Z,10.56
2022-09-17T05:56:38.911Z,10.38
2022-09-17T05:59:05.239Z,10.56
2022-09-17T06:01:31.644Z,10.63
2022-09-17T06:03:58.399Z,10.74
2022-09-17T06:06:24.737Z,10.44
2022-09-17T06:08:51.491Z,10.62
2022-09-17T06:11:17.781Z,10.61
2022-09-17T06:13:44.255Z,10.70
2022-09-17T06:16:10.651Z,10.63
2022-09-17T06:18:37.264Z,10.50
2022-09-17T06:21:05.419Z,10.72
2022-09-17T06:23:35.108Z,10.64
2022-09-17T06:26:02.770Z,10.27
2022-09-17T06:28:29.882Z,10.25
2022-09-17T06:31:01.556Z,10.40
2022-09-17T06:33:27.897Z,10.46
2022-09-17T06:36:00.538Z,10.72
2022-09-17T06:38:28.014Z,11.03
2022-09-17T06:40:54.576Z,11.19
2022-09-17T06:43:21.837Z,11.03
2022-09-17T06:45:55.407Z,11.02
2022-09-17T06:48:22.988Z,10.81
2022-09-17T06:50:50.295Z,10.67
2022-09-17T06:53:16.697Z,10.54
2022-09-17T06:55:43.518Z,10.61
2022-09-17T06:58:09.811Z,10.86
2022-09-17T07:00:36.358Z,10.73
2022-09-17T07:03:02.885Z,10.52
2022-09-17T07:05:30.135Z,10.66
2022-09-17T07:07:56.492Z,10.76
2022-09-17T07:10:27.085Z,10.99
2022-09-17T07:12:54.417Z,10.85
2022-09-17T07:15:21.395Z,10.94
2022-09-17T07:17:48.333Z,10.87
2022-09-17T07:20:14.849Z,10.98
2022-09-17T07:22:41.163Z,10.72
2022-09-17T07:25:08.137Z,10.47
2022-09-17T07:27:34.456Z,10.48
2022-09-17T07:30:00.793Z,10.75
2022-09-17T07:32:30.064Z,10.89
2022-09-17T07:34:56.604Z,11.11
2022-09-17T07:37:23.111Z,11.05
2022-09-17T07:39:49.737Z,11.13
2022-09-17T07:42:16.121Z,11.21
2022-09-17T07:44:42.477Z,11.01
2022-09-17T07:47:09.886Z,10.65
2022-09-17T07:49:36.464Z,10.57
2022-09-17T07:52:06.229Z,10.62
2022-09-17T07:54:33.765Z,10.67
2022-09-17T07:57:00.934Z,10.89
2022-09-17T07:59:27.212Z,10.87
2022-09-17T08:01:53.662Z,10.56
2022-09-17T08:04:20.135Z,10.79
2022-09-17T08:06:48.253Z,10.84
2022-09-17T08:09:15.849Z,11.16
2022-09-17T08:11:58.289Z,11.51
2022-09-17T08:14:29.413Z,11.19
2022-09-17T08:16:56.870Z,11.17
2022-09-17T08:19:23.387Z,10.90
2022-09-17T08:21:49.691Z,10.83
2022-09-17T08:24:15.977Z,10.92
2022-09-17T08:26:42.305Z,10.88
2022-09-17T08:29:08.835Z,10.66
2022-09-17T08:31:35.296Z,10.66
2022-09-17T08:34:09.593Z,10.84
2022-09-17T08:36:36.775Z,10.83
2022-09-17T08:39:03.765Z,11.05
2022-09-17T08:41:46.084Z,11.41
2022-09-17T08:44:18.545Z,11.29
2022-09-17T08:47:00.792Z,11.44
2022-09-17T08:49:36.241Z,11.31
2022-09-17T08:52:30.497Z,11.07
2022-09-17T08:55:18.258Z,11.01
2022-09-17T08:58:23.180Z,11.35
2022-09-17T09:00:52.465Z,11.40
2022-09-17T09:03:46.800Z,11.31
2022-09-17T09:06:15.547Z,11.32
2022-09-17T09:08:51.017Z,11.19
2022-09-17T09:11:26.158Z,11.24
2022-09-17T09:14:05.223Z,11.38
2022-09-17T09:16:33.982Z,11.67
2022-09-17T09:19:13.462Z,11.85
2022-09-17T09:21:53.591Z,11.82
2022-09-17T09:24:26.071Z,11.82
2022-09-17T09:27:27.352Z,11.66
2022-09-17T09:30:13.624Z,11.95
2022-09-17T09:33:05.228Z,11.99
2022-09-17T09:35:43.740Z,12.05
2022-09-17T09:38:27.984Z,12.11
2022-09-17T09:41:06.431Z,12.29
2022-09-17T09:44:02.880Z,12.32
2022-09-17T09:46:46.985Z,12.43
2022-09-17T09:49:51.066Z,12.41
2022-09-17T09:52:58.548Z,12.25
2022-09-17T09:55:48.091Z,12.12
2022-09-17T09:58:26.274Z,12.16
2022-09-17T10:00:52.645Z,12.05
2022-09-17T10:03:23.225Z,11.98
2022-09-17T10:05:53.838Z,11.92
2022-09-17T10:08:20.489Z,11.93
2022-09-17T10:11:11.167Z,11.94
2022-09-17T10:13:37.847Z,12.20
2022-09-17T10:16:29.053Z,12.22
2022-09-17T10:19:20.269Z,12.19
2022-09-17T10:21:46.620Z,12.42
2022-09-17T10:24:24.992Z,12.39
2022-09-17T10:26:52.925Z,12.29
2022-09-17T10:29:20.964Z,12.31
2022-09-17T10:31:48.716Z,12.33
2022-09-17T10:34:25.565Z,12.31
2022-09-17T10:36:52.235Z,12.38
2022-09-17T10:39:43.972Z,12.35
2022-09-17T10:42:18.868Z,12.51
2022-09-17T10:45:00.731Z,12.33
2022-09-17T10:47:31.477Z,12.39
2022-09-17T10:50:07.871Z,12.35
2022-09-17T10:52:42.032Z,12.45
2022-09-17T10:55:27.764Z,11.97
2022-09-17T10:58:13.296Z,12.11
2022-09-17T11:01:12.084Z,12.01
2022-09-17T11:03:44.002Z,12.22
2022-09-17T11:06:56.208Z,12.22
2022-09-17T11:10:02.699Z,12.33
2022-09-17T11:12:55.132Z,12.32
2022-09-17T11:16:01.873Z,12.27
2022-09-17T11:18:51.172Z,12.35
2022-09-17T11:21:51.941Z,12.17
2022-09-17T11:24:51.552Z,12.24
2022-09-17T11:27:24.997Z,12.12
2022-09-17T11:30:02.885Z,12.34
2022-09-17T11:32:55.928Z,12.50
2022-09-17T11:35:33.350Z,12.66
2022-09-17T11:38:15.997Z,12.99
2022-09-17T11:40:48.193Z,13.18
2022-09-17T11:43:34.042Z,13.00
2022-09-17T11:46:32.710Z,13.02
2022-09-17T11:49:20.514Z,13.12
2022-09-17T11:52:01.863Z,13.31
2022-09-17T11:54:53.719Z,13.44
2022-09-17T11:57:54.664Z,13.70
2022-09-17T12:00:23.851Z,13.73
2022-09-17T12:02:58.293Z,13.27
2022-09-17T12:05:48.223Z,13.24
2022-09-17T12:09:13.107Z,13.06
2022-09-17T12:12:04.179Z,13.26
2022-09-17T12:14:55.333Z,13.05
2022-09-17T12:17:24.601Z,13.09
2022-09-17T12:20:17.958Z,13.24
2022-09-17T12:22:47.889Z,13.16
2022-09-17T12:25:14.627Z,13.40
2022-09-17T12:28:02.769Z,13.36
2022-09-17T12:30:49.145Z,13.67
2022-09-17T12:33:45.555Z,13.80
2022-09-17T12:36:53.980Z,13.20
2022-09-17T12:39:48.325Z,13.35
2022-09-17T12:42:42.600Z,13.07
2022-09-17T12:45:28.938Z,12.96
2022-09-17T12:48:17.927Z,13.01
2022-09-17T12:51:12.785Z,13.36
2022-09-17T12:54:05.020Z,13.10
2022-09-17T12:57:08.835Z,13.07
2022-09-17T12:59:44.238Z,13.27
2022-09-17T13:02:22.507Z,13.87
2022-09-17T13:05:23.092Z,14.35
2022-09-17T13:08:14.131Z,14.43
2022-09-17T13:10:50.909Z,14.66
2022-09-17T13:13:41.939Z,13.94
2022-09-17T13:16:13.321Z,13.78
2022-09-17T13:19:15.977Z,13.72
2022-09-17T13:22:12.627Z,13.72
2022-09-17T13:24:39.250Z,13.44
2022-09-17T13:27:06.107Z,13.35
2022-09-17T13:29:47.332Z,13.39
2022-09-17T13:32:32.249Z,13.41
2022-09-17T13:35:13.949Z,13.69
2022-09-17T13:37:52.640Z,13.77
2022-09-17T13:40:25.087Z,14.11
2022-09-17T13:42:55.770Z,13.71
2022-09-17T13:45:25.201Z,13.59
2022-09-17T13:48:02.429Z,13.42
2022-09-17T13:50:33.429Z,13.35
2022-09-17T13:53:17.120Z,13.30
2022-09-17T13:55:54.686Z,13.47
2022-09-17T13:58:20.945Z,13.28
2022-09-17T14:01:07.738Z,13.23
2022-09-17T14:03:34.205Z,13.35
2022-09-17T14:06:03.291Z,12.93
2022-09-17T14:08:45.646Z,13.10
2022-09-17T14:11:24.135Z,12.87
2022-09-17T14:13:52.183Z,12.83
2022-09-17T14:16:42.464Z,12.80
2022-09-17T14:19:27.758Z,12.66
2022-09-17T14:21:57.475Z,12.86
2022-09-17T14:24:27.404Z,12.29
2022-09-17T14:27:19.710Z,12.32
2022-09-17T14:30:10.551Z,11.93
2022-09-17T14:32:43.998Z,12.07
2022-09-17T14:35:29.108Z,12.15
2022-09-17T14:37:59.168Z,12.19
2022-09-17T14:40:26.979Z,12.41
2022-09-17T14:42:56.713Z,12.68
2022-09-17T14:45:29.368Z,12.56
2022-09-17T14:48:32.702Z,12.60
2022-09-17T14:51:12.510Z,12.66
2022-09-17T14:53:38.825Z,12.63
2022-09-17T14:56:05.443Z,12.64
2022-09-17T14:58:39.751Z,13.00
2022-09-17T15:01:06.117Z,13.09
2022-09-17T15:03:32.392Z,13.32
2022-09-17T15:05:58.680Z,13.57
2022-09-17T15:08:28.770Z,13.13
2022-09-17T15:10:58.452Z,13.44
2022-09-17T15:13:35.682Z,13.43
2022-09-17T15:16:03.671Z,13.42
2022-09-17T15:18:52.267Z,13.22
2022-09-17T15:21:25.598Z,13.37
2022-09-17T15:23:57.802Z,13.87
2022-09-17T15:26:32.726Z,14.13
2022-09-17T15:29:00.168Z,14.03
2022-09-17T15:31:28.440Z,14.08
2022-09-17T15:33:54.802Z,14.58
2022-09-17T15:36:25.018Z,14.27
2022-09-17T15:38:51.585Z,14.04
2022-09-17T15:41:34.511Z,13.65
2022-09-17T15:44:28.570Z,13.52
2022-09-17T15:46:56.743Z,13.68
2022-09-17T15:49:35.954Z,13.71
2022-09-17T15:52:31.322Z,13.41
2022-09-17T15:54:59.125Z,13.46
2022-09-17T15:57:30.012Z,13.12
2022-09-17T16:00:05.425Z,13.43
2022-09-17T16:02:32.626Z,13.40
2022-09-17T16:05:43.581Z,13.18
2022-09-17T16:08:21.620Z,13.43
2022-09-17T16:10:47.898Z,13.34
2022-09-17T16:13:14.407Z,13.28
2022-09-17T16:15:40.796Z,13.71
2022-09-17T16:18:12.195Z,14.05
2022-09-17T16:20:38.484Z,14.07
2022-09-17T16:23:04.800Z,13.96
2022-09-17T16:25:31.210Z,13.00
2022-09-17T16:28:01.632Z,12.85
2022-09-17T16:30:28.118Z,12.74
2022-09-17T16:32:54.676Z,12.75
2022-09-17T16:35:23.701Z,12.56
2022-09-17T16:37:51.602Z,12.67
2022-09-17T16:40:19.244Z,13.03
2022-09-17T16:42:48.743Z,12.63
2022-09-17T16:45:15.766Z,12.47
2022-09-17T16:47:42.891Z,12.63
2022-09-17T16:50:12.410Z,12.47
2022-09-17T16:52:38.821Z,12.62
2022-09-17T16:55:06.570Z,12.54
2022-09-17T16:57:33.335Z,12.50
2022-09-17T17:00:00.292Z,12.83
2022-09-17T17:02:26.876Z,12.96
2022-09-17T17:04:54.159Z,12.88
2022-09-17T17:07:20.856Z,12.95
2022-09-17T17:09:47.138Z,12.97
2022-09-17T17:12:13.521Z,13.00
2022-09-17T17:14:39.837Z,12.57
2022-09-17T17:17:06.181Z,12.71
2022-09-17T17:19:34.605Z,12.57
2022-09-17T17:22:00.919Z,12.79
2022-09-17T17:24:27.222Z,12.61
2022-09-17T17:26:53.524Z,12.52
2022-09-17T17:29:19.835Z,12.52
2022-09-17T17:31:46.188Z,12.45
2022-09-17T17:34:12.573Z,12.19
2022-09-17T17:36:39.003Z,12.00
2022-09-17T17:39:05.415Z,12.01
2022-09-17T17:41:31.792Z,11.95
2022-09-17T17:43:58.174Z,11.94
2022-09-17T17:46:24.588Z,12.10
2022-09-17T17:48:51.344Z,12.09
2022-09-17T17:51:19.410Z,12.18
2022-09-17T17:53:46.688Z,12.41
2022-09-17T17:56:14.673Z,12.26
2022-09-17T17:58:41.315Z,12.09
2022-09-17T18:01:20.084Z,12.02
2022-09-17T18:03:46.922Z,12.15
2022-09-17T18:06:13.775Z,12.16
2022-09-17T18:08:42.464Z,12.15
2022-09-17T18:11:10.408Z,12.10
2022-09-17T18:13:38.771Z,11.88
2022-09-17T18:16:07.522Z,12.00
2022-09-17T18:18:36.311Z,12.15
2022-09-17T18:21:07.334Z,11.99
2022-09-17T18:23:35.893Z,12.01
2022-09-17T18:26:03.270Z,11.82
2022-09-17T18:28:30.912Z,11.99
2022-09-17T18:31:03.739Z,12.14
2022-09-17T18:33:30.119Z,12.06
2022-09-17T18:36:02.027Z,12.13
2022-09-17T18:38:29.189Z,11.93
2022-09-17T18:40:55.649Z,12.10
2022-09-17T18:43:22.012Z,12.26
2022-09-17T18:45:56.056Z,12.12
2022-09-17T18:48:23.472Z,11.96
2022-09-17T18:51:00.931Z,11.95
2022-09-17T18:53:28.685Z,12.19
2022-09-17T18:55:58.018Z,12.10
2022-09-17T18:58:24.443Z,11.84
2022-09-17T19:00:51.004Z,12.07
2022-09-17T19:03:17.366Z,11.95
2022-09-17T19:05:43.746Z,11.86
2022-09-17T19:08:10.166Z,12.03
2022-09-17T19:10:36.568Z,12.32
2022-09-17T19:13:03.504Z,12.60
2022-09-17T19:15:30.352Z,12.84
2022-09-17T19:17:58.414Z,12.64
2022-09-17T19:20:25.749Z,12.54
2022-09-17T19:22:52.797Z,12.48
2022-09-17T19:25:23.144Z,12.29
2022-09-17T19:27:49.595Z,11.99
2022-09-17T19:30:16.034Z,12.29
2022-09-17T19:32:45.833Z,12.35
2022-09-17T19:35:12.816Z,11.55
2022-09-17T19:37:39.171Z,11.50
2022-09-17T19:40:06.730Z,11.28
2022-09-17T19:42:33.241Z,11.20
2022-09-17T19:44:59.622Z,11.11
2022-09-17T19:47:26.029Z,10.95
2022-09-17T19:49:52.484Z,10.97
2022-09-17T19:52:19.787Z,10.99
2022-09-17T19:54:46.665Z,11.08
2022-09-17T19:57:13.183Z,11.19
2022-09-17T19:59:39.573Z,11.20
2022-09-17T20:02:06.002Z,11.21
2022-09-17T20:04:32.406Z,11.36
2022-09-17T20:07:01.647Z,11.12
2022-09-17T20:09:27.992Z,11.00
2022-09-17T20:11:54.477Z,11.13
2022-09-17T20:14:21.206Z,10.90
2022-09-17T20:16:47.682Z,10.94
2022-09-17T20:19:16.473Z,10.77
2022-09-17T20:21:43.010Z,10.59
2022-09-17T20:24:09.342Z,10.56
2022-09-17T20:26:36.396Z,10.57
2022-09-17T20:29:06.226Z,10.77
2022-09-17T20:31:33.158Z,10.67
2022-09-17T20:34:01.917Z,10.68
2022-09-17T20:36:31.391Z,10.46
2022-09-17T20:39:21.136Z,10.62
2022-09-17T20:41:44.702Z,10.52
2022-09-17T20:44:11.240Z,10.77
2022-09-17T20:46:37.678Z,10.73
2022-09-17T20:49:04.280Z,10.78
2022-09-17T20:51:32.596Z,10.72
2022-09-17T20:53:59.099Z,10.65
2022-09-17T20:56:28.719Z,10.85
2022-09-17T20:59:03.898Z,10.86
2022-09-17T21:01:34.365Z,10.93
2022-09-17T21:04:02.023Z,11.07
2022-09-17T21:06:30.946Z,11.10
2022-09-17T21:08:59.991Z,11.38
2022-09-17T21:11:27.989Z,11.64
2022-09-17T21:13:54.421Z,11.51
2022-09-17T21:16:21.016Z,11.37
2022-09-17T21:18:48.904Z,11.38
2022-09-17T21:21:17.404Z,11.45
2022-09-17T21:23:44.278Z,11.43
2022-09-17T21:26:22.337Z,11.31
2022-09-17T21:28:50.487Z,11.41
2022-09-17T21:31:21.381Z,11.40
2022-09-17T21:33:51.556Z,11.41
2022-09-17T21:36:19.936Z,11.30
2022-09-17T21:38:54.077Z,11.22
2022-09-17T21:41:21.842Z,11.43
2022-09-17T21:43:48.491Z,11.61
2022-09-17T21:46:21.474Z,11.17
2022-09-17T21:48:50.164Z,11.43
2022-09-17T21:51:19.889Z,11.50
2022-09-17T21:53:50.341Z,11.75
2022-09-17T21:56:18.068Z,11.58
2022-09-17T21:58:45.891Z,11.54
2022-09-17T22:01:16.042Z,11.41
2022-09-17T22:03:42.841Z,11.47
2022-09-17T22:06:18.415Z,11.44
2022-09-17T22:08:45.941Z,11.54
2022-09-17T22:11:15.227Z,11.15
2022-09-17T22:13:42.243Z,11.53
2022-09-17T22:16:10.010Z,11.32
2022-09-17T22:18:37.715Z,11.37
2022-09-17T22:21:19.063Z,11.54
2022-09-17T22:23:45.407Z,11.51
2022-09-17T22:26:12.204Z,11.68
2022-09-17T22:28:38.749Z,11.58
2022-09-17T22:31:10.398Z,11.46
2022-09-17T22:33:39.823Z,11.27
2022-09-17T22:36:15.456Z,11.33
2022-09-17T22:38:46.457Z,11.11
2022-09-17T22:41:15.806Z,11.01
2022-09-17T22:43:42.130Z,10.96
2022-09-17T22:46:13.814Z,10.82
2022-09-17T22:48:40.736Z,10.98
2022-09-17T22:51:07.662Z,11.09
2022-09-17T22:53:34.948Z,10.91
2022-09-17T22:56:02.169Z,11.10
2022-09-17T22:58:28.842Z,10.86
2022-09-17T23:00:55.642Z,10.89
2022-09-17T23:03:23.094Z,10.95
2022-09-17T23:05:49.588Z,10.94
2022-09-17T23:08:16.021Z,10.87
2022-09-17T23:10:43.234Z,10.64
2022-09-17T23:13:10.946Z,10.71
2022-09-17T23:15:38.439Z,10.71
2022-09-17T23:18:05.088Z,10.86
2022-09-17T23:20:32.518Z,10.99
2022-09-17T23:22:59.950Z,11.07
2022-09-17T23:25:27.233Z,11.29
2022-09-17T23:27:55.465Z,11.48
2022-09-17T23:30:22.908Z,11.37
2022-09-17T23:32:55.969Z,11.31
2022-09-17T23:35:24.124Z,11.39
2022-09-17T23:37:50.964Z,11.32
2022-09-17T23:40:18.271Z,11.40
2022-09-17T23:42:44.665Z,11.37
2022-09-17T23:45:11.046Z,11.48
2022-09-17T23:47:37.333Z,11.52
2022-09-17T23:50:04.313Z,11.63
2022-09-17T23:52:30.815Z,11.59
2022-09-17T23:54:58.535Z,11.59
2022-09-17T23:57:25.557Z,11.79
2022-09-17T23:59:52.986Z,11.64
